sensor_id;sensor_type;location;lat;lon;timestamp;P1;durP1;ratioP1;P2;durP2;ratioP2
9304;SDS011;4690;52.422;13.486;2022-11-04T00:04:49;10.93;;;8.07;;
9304;SDS011;4690;52.422;13.486;2022-11-04T00:07:15;12.33;;;8.10;;
9304;SDS011;4690;52.422;13.486;2022-11-04T00:09:59;10.00;;;7.70;;
9304;SDS011;4690;52.422;13.486;2022-11-04T00:12:25;12.27;;;8.27;;
9304;SDS011;4690;52.422;13.486;2022-11-04T00:14:51;9.87;;;7.80;;
9304;SDS011;4690;52.422;13.486;2022-11-04T00:17:17;10.90;;;7.70;;
9304;SDS011;4690;52.422;13.486;2022-11-04T00:19:44;10.77;;;8.03;;
9304;SDS011;4690;52.422;13.486;2022-11-04T00:22:29;10.57;;;7.43;;
9304;SDS011;4690;52.422;13.486;2022-11-04T00:25:13;11.37;;;8.20;;
9304;SDS011;4690;52.422;13.486;2022-11-04T00:28:07;11.43;;;8.77;;
9304;SDS011;4690;52.422;13.486;2022-11-04T00:30:56;12.83;;;8.70;;
9304;SDS011;4690;52.422;13.486;2022-11-04T00:33:44;12.90;;;8.40;;
9304;SDS011;4690;52.422;13.486;2022-11-04T00:36:12;10.17;;;8.37;;
9304;SDS011;4690;52.422;13.486;2022-11-04T00:38:38;11.03;;;8.17;;
9304;SDS011;4690;52.422;13.486;2022-11-04T00:41:04;9.67;;;8.57;;
9304;SDS011;4690;52.422;13.486;2022-11-04T00:43:49;10.63;;;8.50;;
9304;SDS011;4690;52.422;13.486;2022-11-04T00:46:16;11.27;;;8.13;;
9304;SDS011;4690;52.422;13.486;2022-11-04T00:48:42;11.00;;;9.10;;
9304;SDS011;4690;52.422;13.486;2022-11-04T00:51:08;9.53;;;8.40;;
9304;SDS011;4690;52.422;13.486;2022-11-04T00:53:33;9.30;;;8.37;;
9304;SDS011;4690;52.422;13.486;2022-11-04T00:55:59;10.03;;;7.90;;
9304;SDS011;4690;52.422;13.486;2022-11-04T00:58:25;9.27;;;7.83;;
9304;SDS011;4690;52.422;13.486;2022-11-04T01:00:53;9.13;;;8.13;;
9304;SDS011;4690;52.422;13.486;2022-11-04T01:03:18;10.20;;;7.97;;
9304;SDS011;4690;52.422;13.486;2022-11-04T01:05:44;11.67;;;9.03;;
9304;SDS011;4690;52.422;13.486;2022-11-04T01:08:10;9.40;;;8.40;;
9304;SDS011;4690;52.422;13.486;2022-11-04T01:10:36;10.00;;;7.80;;
9304;SDS011;4690;52.422;13.486;2022-11-04T01:13:08;10.77;;;8.37;;
9304;SDS011;4690;52.422;13.486;2022-11-04T01:15:38;10.53;;;8.37;;
9304;SDS011;4690;52.422;13.486;2022-11-04T01:18:04;11.97;;;8.77;;
9304;SDS011;4690;52.422;13.486;2022-11-04T01:20:31;10.13;;;7.87;;
9304;SDS011;4690;52.422;13.486;2022-11-04T01:22:57;10.27;;;8.90;;
9304;SDS011;4690;52.422;13.486;2022-11-04T01:25:23;10.97;;;8.70;;
9304;SDS011;4690;52.422;13.486;2022-11-04T01:27:49;10.57;;;8.30;;
9304;SDS011;4690;52.422;13.486;2022-11-04T01:30:15;13.70;;;9.50;;
9304;SDS011;4690;52.422;13.486;2022-11-04T01:32:41;12.27;;;9.37;;
9304;SDS011;4690;52.422;13.486;2022-11-04T01:35:07;9.60;;;8.43;;
9304;SDS011;4690;52.422;13.486;2022-11-04T01:37:33;14.50;;;9.43;;
9304;SDS011;4690;52.422;13.486;2022-11-04T01:39:59;10.43;;;8.60;;
9304;SDS011;4690;52.422;13.486;2022-11-04T01:42:24;9.87;;;8.47;;
9304;SDS011;4690;52.422;13.486;2022-11-04T01:44:55;11.37;;;8.50;;
9304;SDS011;4690;52.422;13.486;2022-11-04T01:52:43;12.17;;;9.20;;
9304;SDS011;4690;52.422;13.486;2022-11-04T01:55:18;12.63;;;9.43;;
9304;SDS011;4690;52.422;13.486;2022-11-04T01:57:50;10.50;;;8.80;;
9304;SDS011;4690;52.422;13.486;2022-11-04T02:00:20;10.93;;;9.27;;
9304;SDS011;4690;52.422;13.486;2022-11-04T02:02:54;12.43;;;9.43;;
9304;SDS011;4690;52.422;13.486;2022-11-04T02:05:27;12.67;;;8.87;;
9304;SDS011;4690;52.422;13.486;2022-11-04T02:07:55;11.80;;;9.47;;
9304;SDS011;4690;52.422;13.486;2022-11-04T02:10:26;10.93;;;8.57;;
9304;SDS011;4690;52.422;13.486;2022-11-04T02:12:54;12.37;;;9.03;;
9304;SDS011;4690;52.422;13.486;2022-11-04T02:15:43;13.70;;;8.97;;
9304;SDS011;4690;52.422;13.486;2022-11-04T02:18:50;10.90;;;8.60;;
9304;SDS011;4690;52.422;13.486;2022-11-04T02:24:59;10.93;;;9.07;;
9304;SDS011;4690;52.422;13.486;2022-11-04T02:27:55;12.03;;;8.60;;
9304;SDS011;4690;52.422;13.486;2022-11-04T02:30:52;14.67;;;11.07;;
9304;SDS011;4690;52.422;13.486;2022-11-04T02:36:04;14.20;;;10.03;;
9304;SDS011;4690;52.422;13.486;2022-11-04T02:38:49;12.90;;;10.30;;
9304;SDS011;4690;52.422;13.486;2022-11-04T02:44:21;11.90;;;9.63;;
9304;SDS011;4690;52.422;13.486;2022-11-04T02:47:02;13.40;;;10.00;;
9304;SDS011;4690;52.422;13.486;2022-11-04T02:49:40;12.43;;;10.00;;
9304;SDS011;4690;52.422;13.486;2022-11-04T02:52:20;12.90;;;10.07;;
9304;SDS011;4690;52.422;13.486;2022-11-04T02:55:32;14.17;;;10.87;;
9304;SDS011;4690;52.422;13.486;2022-11-04T02:58:12;13.73;;;10.30;;
9304;SDS011;4690;52.422;13.486;2022-11-04T03:00:45;15.17;;;10.30;;
9304;SDS011;4690;52.422;13.486;2022-11-04T03:03:17;12.60;;;9.37;;
9304;SDS011;4690;52.422;13.486;2022-11-04T03:05:51;13.17;;;10.27;;
9304;SDS011;4690;52.422;13.486;2022-11-04T03:08:23;11.60;;;9.40;;
9304;SDS011;4690;52.422;13.486;2022-11-04T03:11:05;11.43;;;9.57;;
9304;SDS011;4690;52.422;13.486;2022-11-04T03:16:15;12.80;;;10.07;;
9304;SDS011;4690;52.422;13.486;2022-11-04T03:21:45;12.10;;;9.70;;
9304;SDS011;4690;52.422;13.486;2022-11-04T03:24:23;12.50;;;10.27;;
9304;SDS011;4690;52.422;13.486;2022-11-04T03:26:59;11.37;;;9.53;;
9304;SDS011;4690;52.422;13.486;2022-11-04T03:29:39;13.80;;;10.33;;
9304;SDS011;4690;52.422;13.486;2022-11-04T03:35:14;11.57;;;9.83;;
9304;SDS011;4690;52.422;13.486;2022-11-04T03:37:42;12.17;;;10.00;;
9304;SDS011;4690;52.422;13.486;2022-11-04T03:40:10;13.67;;;10.63;;
9304;SDS011;4690;52.422;13.486;2022-11-04T03:42:39;13.97;;;10.53;;
9304;SDS011;4690;52.422;13.486;2022-11-04T03:45:35;13.60;;;10.33;;
9304;SDS011;4690;52.422;13.486;2022-11-04T03:48:02;13.70;;;10.50;;
9304;SDS011;4690;52.422;13.486;2022-11-04T03:50:30;14.50;;;11.30;;
9304;SDS011;4690;52.422;13.486;2022-11-04T03:53:04;14.00;;;10.50;;
9304;SDS011;4690;52.422;13.486;2022-11-04T03:56:20;15.73;;;10.60;;
9304;SDS011;4690;52.422;13.486;2022-11-04T03:59:03;14.00;;;10.20;;
9304;SDS011;4690;52.422;13.486;2022-11-04T04:01:45;12.73;;;10.20;;
9304;SDS011;4690;52.422;13.486;2022-11-04T04:07:01;15.43;;;10.33;;
9304;SDS011;4690;52.422;13.486;2022-11-04T04:09:41;10.57;;;9.47;;
9304;SDS011;4690;52.422;13.486;2022-11-04T04:12:26;13.40;;;10.43;;
9304;SDS011;4690;52.422;13.486;2022-11-04T04:15:03;12.33;;;9.83;;
9304;SDS011;4690;52.422;13.486;2022-11-04T04:17:57;15.80;;;11.00;;
9304;SDS011;4690;52.422;13.486;2022-11-04T04:20:30;13.40;;;10.57;;
9304;SDS011;4690;52.422;13.486;2022-11-04T04:23:12;13.27;;;10.17;;
9304;SDS011;4690;52.422;13.486;2022-11-04T04:26:04;15.50;;;10.43;;
9304;SDS011;4690;52.422;13.486;2022-11-04T04:28:52;12.73;;;10.37;;
9304;SDS011;4690;52.422;13.486;2022-11-04T04:31:21;13.47;;;10.23;;
9304;SDS011;4690;52.422;13.486;2022-11-04T04:34:10;12.13;;;9.43;;
9304;SDS011;4690;52.422;13.486;2022-11-04T04:36:40;12.03;;;9.87;;
9304;SDS011;4690;52.422;13.486;2022-11-04T04:39:25;15.00;;;10.00;;
9304;SDS011;4690;52.422;13.486;2022-11-04T04:42:19;13.00;;;10.17;;
9304;SDS011;4690;52.422;13.486;2022-11-04T04:45:04;13.07;;;10.67;;
9304;SDS011;4690;52.422;13.486;2022-11-04T04:47:36;13.57;;;10.57;;
9304;SDS011;4690;52.422;13.486;2022-11-04T04:50:10;12.67;;;10.03;;
9304;SDS011;4690;52.422;13.486;2022-11-04T04:52:41;13.33;;;10.57;;
9304;SDS011;4690;52.422;13.486;2022-11-04T04:55:14;13.63;;;10.60;;
9304;SDS011;4690;52.422;13.486;2022-11-04T04:57:41;13.53;;;10.67;;
9304;SDS011;4690;52.422;13.486;2022-11-04T05:00:08;13.00;;;10.50;;
9304;SDS011;4690;52.422;13.486;2022-11-04T05:02:38;13.63;;;10.33;;
9304;SDS011;4690;52.422;13.486;2022-11-04T05:05:05;13.70;;;10.27;;
9304;SDS011;4690;52.422;13.486;2022-11-04T05:07:31;12.33;;;9.93;;
9304;SDS011;4690;52.422;13.486;2022-11-04T05:09:57;11.50;;;10.17;;
9304;SDS011;4690;52.422;13.486;2022-11-04T05:12:23;11.77;;;9.70;;
9304;SDS011;4690;52.422;13.486;2022-11-04T05:14:48;13.57;;;10.23;;
9304;SDS011;4690;52.422;13.486;2022-11-04T05:17:14;12.03;;;9.90;;
9304;SDS011;4690;52.422;13.486;2022-11-04T05:19:40;12.17;;;9.73;;
9304;SDS011;4690;52.422;13.486;2022-11-04T05:22:06;14.00;;;10.40;;
9304;SDS011;4690;52.422;13.486;2022-11-04T05:24:31;17.47;;;10.43;;
9304;SDS011;4690;52.422;13.486;2022-11-04T05:26:57;14.43;;;10.73;;
9304;SDS011;4690;52.422;13.486;2022-11-04T05:29:23;13.93;;;10.37;;
9304;SDS011;4690;52.422;13.486;2022-11-04T05:31:48;14.13;;;10.57;;
9304;SDS011;4690;52.422;13.486;2022-11-04T05:34:14;12.40;;;10.00;;
9304;SDS011;4690;52.422;13.486;2022-11-04T05:36:40;13.57;;;10.23;;
9304;SDS011;4690;52.422;13.486;2022-11-04T05:39:06;12.33;;;10.87;;
9304;SDS011;4690;52.422;13.486;2022-11-04T05:41:32;12.03;;;10.57;;
9304;SDS011;4690;52.422;13.486;2022-11-04T05:43:59;14.77;;;10.93;;
9304;SDS011;4690;52.422;13.486;2022-11-04T05:46:27;14.90;;;11.10;;
9304;SDS011;4690;52.422;13.486;2022-11-04T05:48:53;12.20;;;10.77;;
9304;SDS011;4690;52.422;13.486;2022-11-04T05:51:21;13.80;;;11.00;;
9304;SDS011;4690;52.422;13.486;2022-11-04T05:53:49;14.17;;;11.07;;
9304;SDS011;4690;52.422;13.486;2022-11-04T05:56:15;15.73;;;12.00;;
9304;SDS011;4690;52.422;13.486;2022-11-04T05:58:41;15.00;;;11.87;;
9304;SDS011;4690;52.422;13.486;2022-11-04T06:01:24;13.93;;;10.67;;
9304;SDS011;4690;52.422;13.486;2022-11-04T06:03:55;14.93;;;11.10;;
9304;SDS011;4690;52.422;13.486;2022-11-04T06:06:23;13.77;;;11.57;;
9304;SDS011;4690;52.422;13.486;2022-11-04T06:08:51;14.20;;;11.20;;
9304;SDS011;4690;52.422;13.486;2022-11-04T06:11:18;12.27;;;10.40;;
9304;SDS011;4690;52.422;13.486;2022-11-04T06:13:45;16.33;;;10.37;;
9304;SDS011;4690;52.422;13.486;2022-11-04T06:16:11;16.13;;;11.40;;
9304;SDS011;4690;52.422;13.486;2022-11-04T06:18:37;14.23;;;11.33;;
9304;SDS011;4690;52.422;13.486;2022-11-04T06:23:37;15.83;;;11.37;;
9304;SDS011;4690;52.422;13.486;2022-11-04T06:26:04;15.07;;;11.93;;
9304;SDS011;4690;52.422;13.486;2022-11-04T06:28:30;15.83;;;11.57;;
9304;SDS011;4690;52.422;13.486;2022-11-04T06:30:57;13.43;;;11.07;;
9304;SDS011;4690;52.422;13.486;2022-11-04T06:33:27;13.13;;;11.40;;
9304;SDS011;4690;52.422;13.486;2022-11-04T06:35:57;17.73;;;12.83;;
9304;SDS011;4690;52.422;13.486;2022-11-04T06:38:25;15.80;;;11.97;;
9304;SDS011;4690;52.422;13.486;2022-11-04T06:40:53;14.80;;;11.83;;
9304;SDS011;4690;52.422;13.486;2022-11-04T06:43:18;14.67;;;11.83;;
9304;SDS011;4690;52.422;13.486;2022-11-04T06:45:51;15.67;;;11.50;;
9304;SDS011;4690;52.422;13.486;2022-11-04T06:48:18;15.43;;;12.20;;
9304;SDS011;4690;52.422;13.486;2022-11-04T06:50:44;15.37;;;12.00;;
9304;SDS011;4690;52.422;13.486;2022-11-04T06:53:09;14.67;;;13.13;;
9304;SDS011;4690;52.422;13.486;2022-11-04T06:55:35;16.33;;;12.37;;
9304;SDS011;4690;52.422;13.486;2022-11-04T06:58:01;17.17;;;11.87;;
9304;SDS011;4690;52.422;13.486;2022-11-04T07:00:26;14.67;;;11.90;;
9304;SDS011;4690;52.422;13.486;2022-11-04T07:02:52;15.27;;;11.97;;
9304;SDS011;4690;52.422;13.486;2022-11-04T07:05:18;18.30;;;12.53;;
9304;SDS011;4690;52.422;13.486;2022-11-04T07:07:43;16.33;;;12.83;;
9304;SDS011;4690;52.422;13.486;2022-11-04T07:10:09;14.43;;;12.93;;
9304;SDS011;4690;52.422;13.486;2022-11-04T07:12:35;15.03;;;11.97;;
9304;SDS011;4690;52.422;13.486;2022-11-04T07:15:01;17.53;;;12.93;;
9304;SDS011;4690;52.422;13.486;2022-11-04T07:17:27;13.87;;;10.97;;
9304;SDS011;4690;52.422;13.486;2022-11-04T07:19:53;14.40;;;12.47;;
9304;SDS011;4690;52.422;13.486;2022-11-04T07:22:19;16.67;;;13.60;;
9304;SDS011;4690;52.422;13.486;2022-11-04T07:24:45;17.87;;;12.80;;
9304;SDS011;4690;52.422;13.486;2022-11-04T07:27:10;17.77;;;13.43;;
9304;SDS011;4690;52.422;13.486;2022-11-04T07:29:36;18.60;;;14.70;;
9304;SDS011;4690;52.422;13.486;2022-11-04T07:32:02;16.97;;;14.27;;
9304;SDS011;4690;52.422;13.486;2022-11-04T07:34:28;16.13;;;13.07;;
9304;SDS011;4690;52.422;13.486;2022-11-04T07:36:54;18.33;;;14.57;;
9304;SDS011;4690;52.422;13.486;2022-11-04T07:39:19;22.40;;;16.53;;
9304;SDS011;4690;52.422;13.486;2022-11-04T07:41:45;17.80;;;14.63;;
9304;SDS011;4690;52.422;13.486;2022-11-04T07:44:11;17.23;;;15.07;;
9304;SDS011;4690;52.422;13.486;2022-11-04T07:46:37;17.70;;;14.77;;
9304;SDS011;4690;52.422;13.486;2022-11-04T07:49:03;18.33;;;15.30;;
9304;SDS011;4690;52.422;13.486;2022-11-04T07:51:30;22.53;;;16.67;;
9304;SDS011;4690;52.422;13.486;2022-11-04T07:53:59;19.67;;;16.07;;
9304;SDS011;4690;52.422;13.486;2022-11-04T07:56:25;18.40;;;15.70;;
9304;SDS011;4690;52.422;13.486;2022-11-04T07:58:51;19.40;;;16.53;;
9304;SDS011;4690;52.422;13.486;2022-11-04T08:01:19;27.07;;;20.73;;
9304;SDS011;4690;52.422;13.486;2022-11-04T08:03:47;25.77;;;19.33;;
9304;SDS011;4690;52.422;13.486;2022-11-04T08:06:15;21.90;;;18.10;;
9304;SDS011;4690;52.422;13.486;2022-11-04T08:08:42;19.60;;;16.27;;
9304;SDS011;4690;52.422;13.486;2022-11-04T08:11:10;19.03;;;16.03;;
9304;SDS011;4690;52.422;13.486;2022-11-04T08:13:40;22.00;;;16.93;;
9304;SDS011;4690;52.422;13.486;2022-11-04T08:16:08;20.43;;;17.93;;
9304;SDS011;4690;52.422;13.486;2022-11-04T08:18:37;23.30;;;18.27;;
9304;SDS011;4690;52.422;13.486;2022-11-04T08:21:04;21.50;;;17.80;;
9304;SDS011;4690;52.422;13.486;2022-11-04T08:23:31;19.27;;;17.13;;
9304;SDS011;4690;52.422;13.486;2022-11-04T08:25:58;23.23;;;17.10;;
9304;SDS011;4690;52.422;13.486;2022-11-04T08:28:24;18.97;;;16.33;;
9304;SDS011;4690;52.422;13.486;2022-11-04T08:30:56;21.43;;;17.23;;
9304;SDS011;4690;52.422;13.486;2022-11-04T08:33:39;23.47;;;17.00;;
9304;SDS011;4690;52.422;13.486;2022-11-04T08:36:07;17.90;;;15.93;;
9304;SDS011;4690;52.422;13.486;2022-11-04T08:38:43;17.63;;;15.10;;
9304;SDS011;4690;52.422;13.486;2022-11-04T08:41:10;18.90;;;15.60;;
9304;SDS011;4690;52.422;13.486;2022-11-04T08:43:38;18.83;;;15.87;;
9304;SDS011;4690;52.422;13.486;2022-11-04T08:46:05;23.30;;;16.17;;
9304;SDS011;4690;52.422;13.486;2022-11-04T08:48:33;17.27;;;15.33;;
9304;SDS011;4690;52.422;13.486;2022-11-04T08:51:02;16.13;;;13.93;;
9304;SDS011;4690;52.422;13.486;2022-11-04T08:53:30;18.23;;;14.63;;
9304;SDS011;4690;52.422;13.486;2022-11-04T08:55:56;16.20;;;13.80;;
9304;SDS011;4690;52.422;13.486;2022-11-04T08:58:22;19.90;;;14.13;;
9304;SDS011;4690;52.422;13.486;2022-11-04T09:00:49;16.90;;;13.53;;
9304;SDS011;4690;52.422;13.486;2022-11-04T09:03:16;20.70;;;14.23;;
9304;SDS011;4690;52.422;13.486;2022-11-04T09:05:42;20.17;;;14.27;;
9304;SDS011;4690;52.422;13.486;2022-11-04T09:08:11;18.83;;;13.50;;
9304;SDS011;4690;52.422;13.486;2022-11-04T09:10:45;16.27;;;12.63;;
9304;SDS011;4690;52.422;13.486;2022-11-04T09:13:12;23.00;;;13.60;;
9304;SDS011;4690;52.422;13.486;2022-11-04T09:15:40;18.57;;;14.17;;
9304;SDS011;4690;52.422;13.486;2022-11-04T09:18:07;18.53;;;13.70;;
9304;SDS011;4690;52.422;13.486;2022-11-04T09:20:33;19.93;;;14.53;;
9304;SDS011;4690;52.422;13.486;2022-11-04T09:23:02;18.17;;;13.87;;
9304;SDS011;4690;52.422;13.486;2022-11-04T09:25:28;15.57;;;12.73;;
9304;SDS011;4690;52.422;13.486;2022-11-04T09:27:55;16.00;;;12.30;;
9304;SDS011;4690;52.422;13.486;2022-11-04T09:30:21;15.83;;;11.73;;
9304;SDS011;4690;52.422;13.486;2022-11-04T09:32:46;15.20;;;12.77;;
9304;SDS011;4690;52.422;13.486;2022-11-04T09:35:12;14.43;;;11.50;;
9304;SDS011;4690;52.422;13.486;2022-11-04T09:37:40;14.03;;;11.50;;
9304;SDS011;4690;52.422;13.486;2022-11-04T09:40:06;14.50;;;11.43;;
9304;SDS011;4690;52.422;13.486;2022-11-04T09:42:41;13.67;;;11.10;;
9304;SDS011;4690;52.422;13.486;2022-11-04T09:45:12;13.47;;;10.30;;
9304;SDS011;4690;52.422;13.486;2022-11-04T09:47:43;13.77;;;10.27;;
9304;SDS011;4690;52.422;13.486;2022-11-04T09:50:24;10.90;;;9.57;;
9304;SDS011;4690;52.422;13.486;2022-11-04T09:53:26;12.97;;;9.10;;
9304;SDS011;4690;52.422;13.486;2022-11-04T09:56:05;9.87;;;8.70;;
9304;SDS011;4690;52.422;13.486;2022-11-04T09:58:43;9.40;;;8.13;;
9304;SDS011;4690;52.422;13.486;2022-11-04T10:01:13;12.73;;;8.90;;
9304;SDS011;4690;52.422;13.486;2022-11-04T10:06:52;9.93;;;8.07;;
9304;SDS011;4690;52.422;13.486;2022-11-04T10:10:01;10.60;;;8.70;;
9304;SDS011;4690;52.422;13.486;2022-11-04T10:24:51;10.23;;;8.60;;
9304;SDS011;4690;52.422;13.486;2022-11-04T10:27:25;9.97;;;8.63;;
9304;SDS011;4690;52.422;13.486;2022-11-04T10:30:01;12.03;;;9.03;;
9304;SDS011;4690;52.422;13.486;2022-11-04T10:35:38;10.47;;;8.40;;
9304;SDS011;4690;52.422;13.486;2022-11-04T10:41:00;12.47;;;9.67;;
9304;SDS011;4690;52.422;13.486;2022-11-04T10:52:02;9.77;;;8.77;;
9304;SDS011;4690;52.422;13.486;2022-11-04T10:54:29;10.40;;;9.50;;
9304;SDS011;4690;52.422;13.486;2022-11-04T10:57:11;11.47;;;9.97;;
9304;SDS011;4690;52.422;13.486;2022-11-04T10:59:54;10.07;;;9.07;;
9304;SDS011;4690;52.422;13.486;2022-11-04T11:07:52;11.40;;;9.67;;
9304;SDS011;4690;52.422;13.486;2022-11-04T11:12:55;11.03;;;10.03;;
9304;SDS011;4690;52.422;13.486;2022-11-04T11:15:32;11.10;;;9.97;;
9304;SDS011;4690;52.422;13.486;2022-11-04T11:20:32;10.73;;;9.63;;
9304;SDS011;4690;52.422;13.486;2022-11-04T11:23:02;12.57;;;9.80;;
9304;SDS011;4690;52.422;13.486;2022-11-04T11:25:34;13.50;;;9.30;;
9304;SDS011;4690;52.422;13.486;2022-11-04T11:28:09;10.13;;;9.13;;
9304;SDS011;4690;52.422;13.486;2022-11-04T11:33:22;10.77;;;9.77;;
9304;SDS011;4690;52.422;13.486;2022-11-04T11:36:02;10.57;;;9.13;;
9304;SDS011;4690;52.422;13.486;2022-11-04T11:38:37;13.17;;;9.67;;
9304;SDS011;4690;52.422;13.486;2022-11-04T11:41:17;11.13;;;10.03;;
9304;SDS011;4690;52.422;13.486;2022-11-04T11:43:52;10.63;;;9.30;;
9304;SDS011;4690;52.422;13.486;2022-11-04T11:46:23;10.90;;;9.80;;
9304;SDS011;4690;52.422;13.486;2022-11-04T11:48:58;10.67;;;8.67;;
9304;SDS011;4690;52.422;13.486;2022-11-04T11:54:15;11.40;;;9.63;;
9304;SDS011;4690;52.422;13.486;2022-11-04T11:56:58;9.77;;;8.87;;
9304;SDS011;4690;52.422;13.486;2022-11-04T11:59:37;12.03;;;10.23;;
9304;SDS011;4690;52.422;13.486;2022-11-04T12:04:57;12.47;;;10.17;;
9304;SDS011;4690;52.422;13.486;2022-11-04T12:19:13;13.77;;;10.97;;
9304;SDS011;4690;52.422;13.486;2022-11-04T12:31:10;12.67;;;11.33;;
9304;SDS011;4690;52.422;13.486;2022-11-04T12:34:06;11.00;;;9.90;;
9304;SDS011;4690;52.422;13.486;2022-11-04T12:45:37;16.00;;;12.57;;
9304;SDS011;4690;52.422;13.486;2022-11-04T12:51:53;11.97;;;10.90;;
9304;SDS011;4690;52.422;13.486;2022-11-04T13:00:13;13.43;;;12.03;;
9304;SDS011;4690;52.422;13.486;2022-11-04T13:02:46;13.10;;;11.33;;
9304;SDS011;4690;52.422;13.486;2022-11-04T13:05:26;13.37;;;12.07;;
9304;SDS011;4690;52.422;13.486;2022-11-04T13:08:10;13.83;;;12.40;;
9304;SDS011;4690;52.422;13.486;2022-11-04T13:10:52;13.23;;;11.87;;
9304;SDS011;4690;52.422;13.486;2022-11-04T13:16:36;17.73;;;12.50;;
9304;SDS011;4690;52.422;13.486;2022-11-04T13:19:15;14.10;;;11.73;;
9304;SDS011;4690;52.422;13.486;2022-11-04T13:21:56;14.47;;;12.93;;
9304;SDS011;4690;52.422;13.486;2022-11-04T13:24:28;15.97;;;14.30;;
9304;SDS011;4690;52.422;13.486;2022-11-04T13:27:02;13.10;;;11.77;;
9304;SDS011;4690;52.422;13.486;2022-11-04T13:30:06;14.47;;;12.97;;
9304;SDS011;4690;52.422;13.486;2022-11-04T13:36:00;13.73;;;12.33;;
9304;SDS011;4690;52.422;13.486;2022-11-04T13:38:31;13.90;;;12.57;;
9304;SDS011;4690;52.422;13.486;2022-11-04T13:44:11;13.43;;;12.13;;
9304;SDS011;4690;52.422;13.486;2022-11-04T13:47:10;15.10;;;13.20;;
9304;SDS011;4690;52.422;13.486;2022-11-04T13:49:48;19.90;;;14.70;;
9304;SDS011;4690;52.422;13.486;2022-11-04T13:52:19;13.80;;;12.40;;
9304;SDS011;4690;52.422;13.486;2022-11-04T13:55:04;14.77;;;12.90;;
9304;SDS011;4690;52.422;13.486;2022-11-04T13:57:52;15.83;;;13.40;;
9304;SDS011;4690;52.422;13.486;2022-11-04T14:00:26;14.30;;;12.80;;
9304;SDS011;4690;52.422;13.486;2022-11-04T14:02:55;13.17;;;11.87;;
9304;SDS011;4690;52.422;13.486;2022-11-04T14:05:45;15.27;;;13.13;;
9304;SDS011;4690;52.422;13.486;2022-11-04T14:08:28;13.93;;;12.53;;
9304;SDS011;4690;52.422;13.486;2022-11-04T14:16:11;15.90;;;12.97;;
9304;SDS011;4690;52.422;13.486;2022-11-04T14:18:52;12.53;;;11.37;;
9304;SDS011;4690;52.422;13.486;2022-11-04T14:21:19;12.47;;;11.10;;
9304;SDS011;4690;52.422;13.486;2022-11-04T14:23:58;15.40;;;13.20;;
9304;SDS011;4690;52.422;13.486;2022-11-04T14:26:25;14.70;;;12.17;;
9304;SDS011;4690;52.422;13.486;2022-11-04T14:31:48;15.27;;;11.97;;
9304;SDS011;4690;52.422;13.486;2022-11-04T14:34:27;20.60;;;13.27;;
9304;SDS011;4690;52.422;13.486;2022-11-04T14:37:23;13.43;;;12.03;;
9304;SDS011;4690;52.422;13.486;2022-11-04T14:39:54;12.93;;;11.60;;
9304;SDS011;4690;52.422;13.486;2022-11-04T14:43:05;23.30;;;14.20;;
9304;SDS011;4690;52.422;13.486;2022-11-04T14:45:24;12.33;;;11.13;;
9304;SDS011;4690;52.422;13.486;2022-11-04T14:48:19;14.37;;;12.43;;
9304;SDS011;4690;52.422;13.486;2022-11-04T14:50:48;16.87;;;13.67;;
9304;SDS011;4690;52.422;13.486;2022-11-04T14:53:21;20.03;;;14.37;;
9304;SDS011;4690;52.422;13.486;2022-11-04T14:56:23;18.17;;;13.70;;
9304;SDS011;4690;52.422;13.486;2022-11-04T14:59:01;22.23;;;12.80;;
9304;SDS011;4690;52.422;13.486;2022-11-04T15:01:31;17.00;;;13.37;;
9304;SDS011;4690;52.422;13.486;2022-11-04T15:04:06;15.80;;;13.03;;
9304;SDS011;4690;52.422;13.486;2022-11-04T15:06:57;16.07;;;12.90;;
9304;SDS011;4690;52.422;13.486;2022-11-04T15:09:29;13.20;;;11.30;;
9304;SDS011;4690;52.422;13.486;2022-11-04T15:12:01;16.37;;;12.77;;
9304;SDS011;4690;52.422;13.486;2022-11-04T15:14:57;14.60;;;12.03;;
9304;SDS011;4690;52.422;13.486;2022-11-04T15:17:28;19.67;;;13.80;;
9304;SDS011;4690;52.422;13.486;2022-11-04T15:19:58;19.80;;;14.10;;
9304;SDS011;4690;52.422;13.486;2022-11-04T15:22:28;16.37;;;14.60;;
9304;SDS011;4690;52.422;13.486;2022-11-04T15:24:54;15.27;;;13.77;;
9304;SDS011;4690;52.422;13.486;2022-11-04T15:27:27;15.83;;;13.13;;
9304;SDS011;4690;52.422;13.486;2022-11-04T15:29:54;19.07;;;14.37;;
9304;SDS011;4690;52.422;13.486;2022-11-04T15:32:30;23.13;;;15.60;;
9304;SDS011;4690;52.422;13.486;2022-11-04T15:34:56;21.67;;;14.20;;
9304;SDS011;4690;52.422;13.486;2022-11-04T15:37:23;20.50;;;13.93;;
9304;SDS011;4690;52.422;13.486;2022-11-04T15:39:54;21.67;;;14.40;;
9304;SDS011;4690;52.422;13.486;2022-11-04T15:42:28;22.40;;;15.97;;
9304;SDS011;4690;52.422;13.486;2022-11-04T15:50:51;21.30;;;15.50;;
9304;SDS011;4690;52.422;13.486;2022-11-04T15:56:21;19.30;;;14.90;;
9304;SDS011;4690;52.422;13.486;2022-11-04T15:59:06;23.03;;;15.90;;
9304;SDS011;4690;52.422;13.486;2022-11-04T16:01:43;19.57;;;14.87;;
9304;SDS011;4690;52.422;13.486;2022-11-04T16:04:12;17.20;;;14.30;;
9304;SDS011;4690;52.422;13.486;2022-11-04T16:06:40;16.97;;;15.07;;
9304;SDS011;4690;52.422;13.486;2022-11-04T16:11:35;15.97;;;14.27;;
9304;SDS011;4690;52.422;13.486;2022-11-04T16:14:21;17.43;;;14.37;;
9304;SDS011;4690;52.422;13.486;2022-11-04T16:16:50;16.43;;;13.93;;
9304;SDS011;4690;52.422;13.486;2022-11-04T16:19:19;16.80;;;15.00;;
9304;SDS011;4690;52.422;13.486;2022-11-04T16:21:56;21.80;;;16.10;;
9304;SDS011;4690;52.422;13.486;2022-11-04T16:24:26;23.57;;;16.20;;
9304;SDS011;4690;52.422;13.486;2022-11-04T16:26:57;18.77;;;14.20;;
9304;SDS011;4690;52.422;13.486;2022-11-04T16:29:30;19.97;;;14.80;;
9304;SDS011;4690;52.422;13.486;2022-11-04T16:32:07;15.50;;;13.90;;
9304;SDS011;4690;52.422;13.486;2022-11-04T16:34:36;20.23;;;14.90;;
9304;SDS011;4690;52.422;13.486;2022-11-04T16:37:02;16.10;;;14.40;;
9304;SDS011;4690;52.422;13.486;2022-11-04T16:39:28;23.27;;;15.27;;
9304;SDS011;4690;52.422;13.486;2022-11-04T16:41:56;22.53;;;14.93;;
9304;SDS011;4690;52.422;13.486;2022-11-04T16:44:22;16.83;;;13.47;;
9304;SDS011;4690;52.422;13.486;2022-11-04T16:46:50;23.03;;;15.20;;
9304;SDS011;4690;52.422;13.486;2022-11-04T16:49:18;17.23;;;15.33;;
9304;SDS011;4690;52.422;13.486;2022-11-04T16:51:47;22.23;;;15.33;;
9304;SDS011;4690;52.422;13.486;2022-11-04T16:54:19;15.10;;;12.93;;
9304;SDS011;4690;52.422;13.486;2022-11-04T16:56:44;16.17;;;14.07;;
9304;SDS011;4690;52.422;13.486;2022-11-04T16:59:11;15.57;;;13.87;;
9304;SDS011;4690;52.422;13.486;2022-11-04T17:01:36;20.30;;;14.67;;
9304;SDS011;4690;52.422;13.486;2022-11-04T17:04:04;19.73;;;15.33;;
9304;SDS011;4690;52.422;13.486;2022-11-04T17:06:31;18.80;;;14.50;;
9304;SDS011;4690;52.422;13.486;2022-11-04T17:08:57;19.93;;;15.53;;
9304;SDS011;4690;52.422;13.486;2022-11-04T17:11:24;21.30;;;15.03;;
9304;SDS011;4690;52.422;13.486;2022-11-04T17:13:50;18.97;;;13.60;;
9304;SDS011;4690;52.422;13.486;2022-11-04T17:16:15;17.37;;;15.27;;
9304;SDS011;4690;52.422;13.486;2022-11-04T17:18:41;22.13;;;16.00;;
9304;SDS011;4690;52.422;13.486;2022-11-04T17:21:07;18.53;;;15.20;;
9304;SDS011;4690;52.422;13.486;2022-11-04T17:23:40;25.07;;;15.57;;
9304;SDS011;4690;52.422;13.486;2022-11-04T17:26:08;22.07;;;15.43;;
9304;SDS011;4690;52.422;13.486;2022-11-04T17:28:36;18.43;;;14.83;;
9304;SDS011;4690;52.422;13.486;2022-11-04T17:31:02;22.07;;;15.17;;
9304;SDS011;4690;52.422;13.486;2022-11-04T17:33:27;17.83;;;15.17;;
9304;SDS011;4690;52.422;13.486;2022-11-04T17:35:53;19.37;;;15.10;;
9304;SDS011;4690;52.422;13.486;2022-11-04T17:38:19;18.17;;;14.33;;